Time;durP1;ratioP1;P1;durP2;ratioP2;P2;SDS_P1;SDS_P2;PMS_P1;PMS_P2;Temp;Humidity;BMP_temperature;BMP_pressure;BME280_temperature;BME280_humidity;BME280_pressure;Samples;Min_cycle;Max_cycle;Signal;HPM_P1;HPM_P2
2022/01/05 00:01:22;;;;;;;33.47;16.05;;;;;;;6.18;85.48;96758.31;4901663;29;20075;-83
2022/01/05 00:03:48;;;;;;;31.25;16.90;;;;;;;6.02;86.17;96741.53;4901373;29;20564;-82
2022/01/05 00:06:14;;;;;;;27.25;13.25;;;;;;;6.04;85.55;96733.47;4901583;29;20424;-83
2022/01/05 00:08:39;;;;;;;26.58;13.93;;;;;;;6.04;86.86;96742.31;4917629;29;20052;-83
2022/01/05 00:11:10;;;;;;;25.90;12.75;;;;;;;6.06;85.78;96768.78;4917693;29;20043;-83
2022/01/05 00:13:36;;;;;;;23.83;11.68;;;;;;;6.02;85.49;96748.66;4918456;29;20126;-83
2022/01/05 00:16:02;;;;;;;29.33;12.82;;;;;;;5.86;86.97;96722.97;4903339;29;20038;-83
2022/01/05 00:18:28;;;;;;;28.17;13.68;;;;;;;5.96;86.67;96728.63;4902093;29;20547;-84
2022/01/05 00:20:57;;;;;;;27.42;13.45;;;;;;;6.00;87.36;96751.38;4932821;29;20063;-84
2022/01/05 00:23:23;;;;;;;32.95;17.60;;;;;;;5.84;87.58;96719.53;4909747;29;20042;-84
2022/01/05 00:25:50;;;;;;;38.35;18.60;;;;;;;6.08;87.58;96759.78;4933103;29;20070;-84
2022/01/05 00:28:15;;;;;;;35.65;18.25;;;;;;;5.88;87.83;96722.88;4911078;29;20027;-83
2022/01/05 00:30:41;;;;;;;35.55;16.83;;;;;;;5.97;89.15;96747.09;4917536;29;20420;-82
2022/01/05 00:33:10;;;;;;;37.10;17.30;;;;;;;5.92;89.82;96738.56;4914502;29;20058;-84
2022/01/05 00:35:35;;;;;;;30.60;17.25;;;;;;;6.03;90.33;96751.19;4917843;29;20036;-83
2022/01/05 00:38:01;;;;;;;38.38;18.63;;;;;;;5.82;89.20;96724.06;4932762;29;20036;-83
2022/01/05 00:40:27;;;;;;;37.15;18.40;;;;;;;5.90;89.38;96721.88;4901984;29;20040;-83
2022/01/05 00:42:52;;;;;;;41.35;19.23;;;;;;;5.91;89.81;96726.22;4902236;29;20075;-83
2022/01/05 00:45:21;;;;;;;38.97;19.77;;;;;;;6.00;89.88;96743.41;4933251;29;20488;-82
2022/01/05 00:47:47;;;;;;;44.70;19.73;;;;;;;5.95;90.82;96738.38;4917781;29;20031;-82
2022/01/05 00:50:15;;;;;;;46.05;20.83;;;;;;;5.88;90.62;96726.41;4917141;29;20422;-82
2022/01/05 00:52:41;;;;;;;43.70;20.23;;;;;;;6.02;90.33;96744.19;4917419;29;20110;-83
2022/01/05 00:55:07;;;;;;;41.58;18.65;;;;;;;6.04;90.06;96746.75;4917389;29;20043;-82
2022/01/05 00:57:33;;;;;;;35.97;16.55;;;;;;;6.01;89.09;96705.31;4917252;29;20049;-83
2022/01/05 00:59:59;;;;;;;36.20;17.42;;;;;;;6.25;89.51;96734.91;4932851;29;20588;-84
2022/01/05 01:02:27;;;;;;;37.70;17.35;;;;;;;6.14;89.46;96718.75;4901307;29;20071;-83
2022/01/05 01:04:53;;;;;;;37.72;17.55;;;;;;;6.16;89.50;96730.97;4901377;29;20050;-82
2022/01/05 01:07:19;;;;;;;28.27;12.95;;;;;;;6.22;89.23;96737.72;4917163;29;20051;-83
2022/01/05 01:09:44;;;;;;;11.48;6.68;;;;;;;6.37;88.11;96744.81;4917327;29;20039;-83
2022/01/05 01:12:10;;;;;;;19.67;8.30;;;;;;;6.63;84.70;96719.38;4920265;29;20044;-83
2022/01/05 01:14:42;;;;;;;19.52;10.00;;;;;;;6.76;83.68;96720.38;4905082;29;20028;-83
2022/01/05 01:17:07;;;;;;;25.58;11.05;;;;;;;6.68;84.09;96712.84;4920323;29;20047;-84
2022/01/05 01:19:33;;;;;;;26.10;13.13;;;;;;;6.81;83.47;96739.53;4903396;29;20099;-83
2022/01/05 01:21:59;;;;;;;30.42;14.25;;;;;;;6.68;83.66;96711.97;4908393;29;20103;-84
2022/01/05 01:24:26;;;;;;;17.10;8.38;;;;;;;6.81;83.26;96713.81;4904617;29;20114;-84
2022/01/05 01:26:52;;;;;;;20.85;9.57;;;;;;;6.95;82.86;96728.94;4920658;29;20047;-83
2022/01/05 01:29:18;;;;;;;12.75;5.72;;;;;;;7.06;80.95;96726.47;4920231;29;20103;-83
2022/01/05 01:31:44;;;;;;;20.15;9.77;;;;;;;7.12;80.20;96725.22;4920126;29;20476;-83
2022/01/05 01:34:09;;;;;;;21.48;10.18;;;;;;;6.99;80.36;96696.75;4920049;29;20039;-83
2022/01/05 01:36:35;;;;;;;11.98;6.43;;;;;;;7.30;79.79;96737.38;4919989;29;20055;-83
2022/01/05 01:39:01;;;;;;;19.85;9.60;;;;;;;7.18;79.83;96722.19;4901728;29;20052;-83
2022/01/05 01:41:27;;;;;;;37.55;19.15;;;;;;;6.96;80.79;96686.31;4920089;29;20039;-83
2022/01/05 01:43:52;;;;;;;28.15;13.25;;;;;;;7.12;81.05;96733.22;4920226;29;20675;-83
2022/01/05 01:46:19;;;;;;;14.10;6.30;;;;;;;7.17;80.50;96731.97;4904448;29;20086;-83
2022/01/05 01:48:45;;;;;;;20.27;8.95;;;;;;;7.04;80.43;96693.81;4920292;29;20504;-83
2022/01/05 01:51:14;;;;;;;32.58;14.20;;;;;;;7.25;80.63;96740.34;4935760;29;20046;-83
2022/01/05 01:53:43;;;;;;;31.83;13.50;;;;;;;7.21;81.07;96732.66;4921537;29;20063;-83
2022/01/05 01:56:10;;;;;;;41.85;16.60;;;;;;;7.13;81.66;96729.63;4904708;29;20338;-83
2022/01/05 01:58:36;;;;;;;81.32;35.53;;;;;;;6.94;82.01;96697.97;4920005;29;20039;-83
2022/01/05 02:01:02;;;;;;;44.75;20.05;;;;;;;6.97;82.59;96711.09;4904187;29;20432;-83
2022/01/05 02:03:31;;;;;;;25.50;12.60;;;;;;;6.79;82.77;96698.91;4920368;29;20050;-84
2022/01/05 02:05:59;;;;;;;29.35;13.32;;;;;;;6.92;83.18;96708.69;4920218;29;20401;-84
2022/01/05 02:08:25;;;;;;;17.17;8.15;;;;;;;6.93;82.58;96697.13;4919257;29;20051;-82
2022/01/05 02:10:51;;;;;;;18.27;7.43;;;;;;;6.90;82.13;96686.69;4920051;29;20044;-85
2022/01/05 02:13:17;;;;;;;19.13;9.13;;;;;;;7.07;81.38;96683.81;4904145;29;20046;-83
2022/01/05 02:15:43;;;;;;;27.88;12.05;;;;;;;6.97;81.11;96650.81;4920137;29;20127;-83
2022/01/05 02:21:08;;;;;;;21.55;8.73;;;;;;;6.95;80.64;96647.38;4924911;29;20048;-84
2022/01/05 02:23:35;;;;;;;18.20;9.68;;;;;;;6.94;80.69;96645.69;4903693;29;20050;-83
2022/01/05 02:26:02;;;;;;;21.45;9.32;;;;;;;7.08;80.48;96656.28;4903573;29;20052;-84
2022/01/05 02:28:28;;;;;;;11.35;6.53;;;;;;;7.33;79.83;96668.03;4919189;29;20070;-82
2022/01/05 02:30:53;;;;;;;15.18;6.88;;;;;;;7.48;79.00;96656.44;4919318;29;20051;-84
2022/01/05 02:33:20;;;;;;;15.32;8.25;;;;;;;7.40;78.65;96643.63;4919176;29;20114;-83
2022/01/05 02:35:47;;;;;;;12.07;6.25;;;;;;;7.50;78.91;96659.88;4903790;29;20104;-85
2022/01/05 02:38:17;;;;;;;8.90;5.15;;;;;;;7.40;79.14;96648.09;4915749;29;20067;-84
2022/01/05 02:40:43;;;;;;;9.48;5.55;;;;;;;7.33;78.97;96631.66;4903634;29;20457;-84
2022/01/05 02:43:08;;;;;;;10.02;5.55;;;;;;;7.40;79.46;96642.78;4903347;29;20055;-84
2022/01/05 02:45:34;;;;;;;12.05;6.85;;;;;;;7.31;80.20;96633.59;4917396;29;20591;-84
2022/01/05 02:48:00;;;;;;;12.65;6.00;;;;;;;7.35;79.68;96643.06;4918881;29;20047;-82
2022/01/05 02:50:25;;;;;;;11.20;5.45;;;;;;;7.20;80.16;96640.53;4902909;29;20082;-83
2022/01/05 02:52:51;;;;;;;10.55;5.65;;;;;;;7.02;80.99;96639.88;4918748;29;20472;-84
2022/01/05 02:55:17;;;;;;;11.48;5.53;;;;;;;7.14;84.13;96663.03;4918633;29;20031;-83
2022/01/05 02:57:43;;;;;;;9.68;5.30;;;;;;;7.24;82.60;96665.97;4918727;29;20031;-84
2022/01/05 03:00:10;;;;;;;11.90;6.53;;;;;;;7.13;82.08;96665.78;4918608;29;20054;-83
2022/01/05 03:02:36;;;;;;;19.40;6.60;;;;;;;6.93;82.71;96656.38;4918340;29;20548;-83
2022/01/05 03:05:03;;;;;;;11.75;5.55;;;;;;;6.81;84.35;96639.41;4919064;29;20123;-84
2022/01/05 03:07:29;;;;;;;12.35;6.90;;;;;;;6.92;83.38;96652.03;4918840;29;20061;-83
2022/01/05 03:09:55;;;;;;;11.35;6.70;;;;;;;6.88;83.95;96666.47;4903137;29;20039;-84
2022/01/05 03:12:21;;;;;;;12.13;7.25;;;;;;;6.45;84.69;96604.47;4902796;29;20094;-84
2022/01/05 03:14:47;;;;;;;15.57;9.18;;;;;;;6.65;84.89;96648.41;4902694;29;20110;-83
2022/01/05 03:17:15;;;;;;;15.52;7.72;;;;;;;6.56;85.87;96644.50;4918695;29;20039;-82
2022/01/05 03:19:41;;;;;;;22.30;11.52;;;;;;;6.39;87.56;96642.03;4902570;29;20055;-83
2022/01/05 03:22:07;;;;;;;24.77;12.98;;;;;;;6.31;87.77;96650.44;4911988;29;20040;-84
2022/01/05 03:24:32;;;;;;;27.20;13.65;;;;;;;6.33;87.78;96640.59;4897829;29;20389;-83
2022/01/05 03:26:58;;;;;;;24.00;11.60;;;;;;;6.40;89.09;96654.31;4899167;29;20068;-82
2022/01/05 03:29:27;;;;;;;26.13;13.20;;;;;;;6.46;88.17;96664.63;4884511;29;20043;-83
2022/01/05 03:31:53;;;;;;;28.90;15.00;;;;;;;6.26;88.34;96630.41;4899241;29;20052;-84
2022/01/05 03:34:20;;;;;;;30.25;14.85;;;;;;;6.31;88.84;96650.44;4906613;29;20036;-84
2022/01/05 03:36:47;;;;;;;40.55;19.63;;;;;;;6.22;89.41;96650.13;4917846;29;20059;-83
2022/01/05 03:39:13;;;;;;;47.85;21.77;;;;;;;6.18;89.96;96651.25;4933655;29;20496;-83
2022/01/05 03:41:39;;;;;;;40.17;19.33;;;;;;;6.02;91.06;96637.19;4917560;29;20036;-83
2022/01/05 03:44:04;;;;;;;44.28;19.40;;;;;;;5.89;91.13;96621.13;4917619;29;20167;-83
2022/01/05 03:46:33;;;;;;;34.75;16.42;;;;;;;5.90;91.95;96618.38;4901705;29;20035;-83
2022/01/05 03:49:02;;;;;;;39.38;18.75;;;;;;;5.91;92.12;96640.44;4917728;29;20507;-83
2022/01/05 03:51:28;;;;;;;43.83;20.30;;;;;;;5.87;92.89;96637.13;4918045;29;20423;-82
2022/01/05 03:53:54;;;;;;;35.72;18.33;;;;;;;5.72;93.41;96639.78;4917792;29;21103;-83
2022/01/05 03:56:20;;;;;;;39.17;18.50;;;;;;;5.55;94.20;96611.56;4917755;29;20059;-83
2022/01/05 03:58:49;;;;;;;31.88;15.75;;;;;;;5.60;95.24;96622.75;4917549;29;20047;-83
2022/01/05 04:01:18;;;;;;;35.10;15.73;;;;;;;5.77;94.87;96648.31;4918427;29;20032;-83
2022/01/05 04:03:46;;;;;;;26.20;13.10;;;;;;;5.84;93.50;96629.31;4901508;29;20044;-83
2022/01/05 04:06:12;;;;;;;42.92;18.35;;;;;;;5.98;94.16;96649.75;4898446;29;20100;-83
2022/01/05 04:08:38;;;;;;;43.00;21.38;;;;;;;5.75;92.93;96619.22;4915619;29;20492;-82
2022/01/05 04:11:03;;;;;;;27.08;14.15;;;;;;;5.83;93.34;96621.44;4909742;29;20531;-83
2022/01/05 04:13:29;;;;;;;28.65;15.45;;;;;;;5.80;94.21;96616.31;4898433;29;20036;-83
2022/01/05 04:15:55;;;;;;;36.15;17.08;;;;;;;5.72;95.12;96629.16;4901474;29;20381;-83
2022/01/05 04:18:20;;;;;;;32.47;15.48;;;;;;;5.80;95.80;96632.22;4901876;29;20575;-82
2022/01/05 04:20:46;;;;;;;26.63;14.32;;;;;;;5.77;94.99;96641.22;4917031;29;20044;-83
2022/01/05 04:23:12;;;;;;;19.70;11.15;;;;;;;5.77;95.17;96627.09;4917342;29;20100;-83
2022/01/05 04:25:38;;;;;;;21.48;11.77;;;;;;;5.90;94.99;96636.09;4917096;29;20513;-84
2022/01/05 04:28:05;;;;;;;23.73;12.82;;;;;;;6.00;93.52;96632.81;4917314;29;20416;-85
2022/01/05 04:30:31;;;;;;;22.98;12.52;;;;;;;6.16;92.98;96635.41;4902218;29;20043;-84
2022/01/05 04:32:58;;;;;;;17.45;9.45;;;;;;;6.30;89.99;96631.94;4902280;29;20056;-84
2022/01/05 04:35:26;;;;;;;19.60;9.25;;;;;;;6.49;88.14;96628.06;4901518;29;20035;-84
2022/01/05 04:37:52;;;;;;;21.38;10.95;;;;;;;6.56;87.41;96628.56;4901960;29;20460;-83
2022/01/05 04:40:21;;;;;;;32.75;14.02;;;;;;;6.70;85.56;96614.44;4901717;29;20035;-84
2022/01/05 04:42:47;;;;;;;30.80;12.60;;;;;;;6.77;85.23;96618.41;4917433;29;20418;-83
2022/01/05 04:45:12;;;;;;;23.88;12.05;;;;;;;6.61;86.61;96605.25;4918599;29;20095;-84
2022/01/05 04:47:38;;;;;;;32.20;14.60;;;;;;;6.63;87.17;96629.03;4905182;29;20035;-84
2022/01/05 04:50:05;;;;;;;40.53;19.85;;;;;;;6.51;87.25;96620.03;4937661;29;20063;-83
2022/01/05 04:52:31;;;;;;;30.52;15.02;;;;;;;6.33;87.05;96586.63;4906263;29;20095;-81
2022/01/05 04:54:56;;;;;;;51.00;25.10;;;;;;;6.29;87.22;96593.06;4905171;29;20032;-82
2022/01/05 04:57:22;;;;;;;31.52;17.00;;;;;;;6.13;87.99;96587.81;4920739;29;20035;-83
2022/01/05 04:59:47;;;;;;;30.05;16.00;;;;;;;5.91;89.36;96582.91;4921034;29;20043;-83
2022/01/05 05:02:14;;;;;;;34.75;16.98;;;;;;;5.96;91.16;96619.81;4904785;29;20046;-83
2022/01/05 05:04:40;;;;;;;25.95;12.52;;;;;;;5.83;92.25;96609.03;4901654;29;20036;-84
2022/01/05 05:07:06;;;;;;;27.13;14.48;;;;;;;5.70;92.32;96600.06;4919383;29;20047;-84
2022/01/05 05:09:32;;;;;;;25.48;13.45;;;;;;;5.69;93.93;96613.44;4904857;29;20507;-83
2022/01/05 05:11:57;;;;;;;25.70;13.70;;;;;;;5.66;93.17;96609.13;4920435;29;20035;-83
2022/01/05 05:14:23;;;;;;;25.60;13.00;;;;;;;5.38;94.24;96593.94;4904729;29;20039;-82
2022/01/05 05:17:10;;;;;;;30.08;13.27;;;;;;;5.53;95.02;96629.38;4922100;29;20031;-83
2022/01/05 05:19:36;;;;;;;38.83;18.45;;;;;;;5.39;95.45;96616.00;4899368;29;20031;-85
2022/01/05 05:22:05;;;;;;;37.30;18.75;;;;;;;5.07;96.22;96571.91;4905271;29;20471;-84
2022/01/05 05:24:51;;;;;;;68.63;34.17;;;;;;;5.36;96.49;96609.09;4935960;29;20047;-83
2022/01/05 05:27:17;;;;;;;65.72;32.60;;;;;;;5.40;96.80;96612.44;4920359;29;20047;-83
2022/01/05 05:29:50;;;;;;;63.22;30.63;;;;;;;5.36;96.78;96619.69;4920408;29;20048;-84
2022/01/05 05:32:16;;;;;;;82.78;40.15;;;;;;;5.33;97.22;96622.53;4902541;29;20044;-85
2022/01/05 05:34:41;;;;;;;80.47;39.20;;;;;;;5.18;97.78;96609.25;4903098;29;20131;-83
2022/01/05 05:37:17;;;;;;;74.75;37.65;;;;;;;5.18;98.70;96596.88;4917214;29;20131;-85
2022/01/05 05:39:43;;;;;;;113.88;54.97;;;;;;;5.39;98.22;96626.63;4887024;29;20416;-84
2022/01/05 05:42:10;;;;;;;52.83;25.38;;;;;;;5.71;96.76;96638.91;4900740;29;20036;-84
2022/01/05 05:44:36;;;;;;;72.45;34.15;;;;;;;5.89;94.12;96648.50;4885356;29;20054;-85
2022/01/05 05:47:05;;;;;;;92.68;43.88;;;;;;;5.93;94.19;96654.50;4916636;29;20040;-83
2022/01/05 05:49:31;;;;;;;243.25;111.75;;;;;;;5.83;94.55;96646.19;4901144;29;20520;-83
2022/01/05 05:51:57;;;;;;;101.05;43.25;;;;;;;5.66;93.27;96629.53;4900988;29;20028;-85
2022/01/05 05:54:22;;;;;;;22.25;12.35;;;;;;;5.92;92.10;96655.44;4901663;29;20127;-83
2022/01/05 05:56:48;;;;;;;50.42;24.35;;;;;;;5.90;92.23;96655.53;4885415;29;20040;-85
2022/01/05 05:59:13;;;;;;;30.60;12.40;;;;;;;5.79;91.69;96665.00;4917010;29;20508;-83
2022/01/05 06:01:39;;;;;;;58.50;20.52;;;;;;;5.72;92.56;96655.69;4885881;29;20408;-83
2022/01/05 06:04:04;;;;;;;36.15;18.65;;;;;;;5.71;93.60;96661.94;4886282;29;20040;-83
2022/01/05 06:06:30;;;;;;;61.95;22.85;;;;;;;5.66;93.53;96656.06;4901872;29;20040;-83
2022/01/05 06:08:56;;;;;;;69.05;29.02;;;;;;;5.63;93.98;96669.50;4917372;29;20103;-83
2022/01/05 06:11:24;;;;;;;78.60;27.60;;;;;;;5.51;94.76;96660.41;4901007;29;20036;-83
2022/01/05 06:13:50;;;;;;;96.97;34.47;;;;;;;5.55;95.53;96672.56;4901629;29;20468;-84
2022/01/05 06:16:16;;;;;;;76.95;32.72;;;;;;;5.51;95.78;96673.66;4901547;29;20124;-84
2022/01/05 06:18:42;;;;;;;208.25;69.63;;;;;;;5.55;95.43;96658.44;4901461;29;20528;-84
2022/01/05 06:21:08;;;;;;;122.10;47.65;;;;;;;5.73;93.91;96673.31;4901565;29;20123;-84
2022/01/05 06:23:33;;;;;;;140.48;54.35;;;;;;;5.74;94.01;96667.06;4915727;29;20051;-83
2022/01/05 06:25:59;;;;;;;109.13;46.95;;;;;;;5.81;93.38;96669.28;4916527;29;20123;-84
2022/01/05 06:28:24;;;;;;;167.73;64.78;;;;;;;5.79;92.93;96659.69;4900610;29;20051;-85
2022/01/05 06:30:50;;;;;;;125.25;56.78;;;;;;;5.91;92.54;96673.16;4908730;29;20070;-83
2022/01/05 06:33:16;;;;;;;116.47;51.63;;;;;;;6.00;91.82;96677.91;4903407;29;20154;-84
2022/01/05 06:35:41;;;;;;;166.55;79.00;;;;;;;5.98;91.19;96677.16;4902255;29;20044;-85
2022/01/05 06:38:07;;;;;;;115.35;55.97;;;;;;;6.13;91.22;96661.28;4915015;29;20040;-84
2022/01/05 06:40:33;;;;;;;134.15;62.63;;;;;;;6.20;90.33;96665.28;4909766;29;20036;-84
2022/01/05 06:43:00;;;;;;;94.43;44.85;;;;;;;6.23;89.35;96665.13;4927116;29;20050;-85
2022/01/05 06:45:29;;;;;;;143.50;64.22;;;;;;;6.34;89.54;96660.00;4895206;29;20044;-83
2022/01/05 06:47:55;;;;;;;177.65;79.90;;;;;;;6.81;87.73;96673.09;4890142;29;20567;-83
2022/01/05 06:50:22;;;;;;;132.10;59.70;;;;;;;7.99;81.83;96666.38;4918045;29;20047;-83
2022/01/05 06:52:47;;;;;;;218.82;88.32;;;;;;;9.69;71.91;96667.88;4921560;29;20500;-86
2022/01/05 06:55:13;;;;;;;135.57;61.10;;;;;;;11.30;63.06;96667.13;4921925;29;20043;-85
2022/01/05 06:57:41;;;;;;;260.98;118.00;;;;;;;12.43;58.05;96649.78;4906546;29;20107;-84
2022/01/05 07:00:09;;;;;;;91.18;49.88;;;;;;;13.71;53.16;96644.06;4915020;29;20179;-84
2022/01/05 07:02:34;;;;;;;107.68;51.97;;;;;;;14.59;50.65;96626.97;4918595;29;20036;-83
2022/01/05 07:05:00;;;;;;;138.23;59.63;;;;;;;15.36;48.74;96620.56;4909421;29;20460;-83
2022/01/05 07:07:26;;;;;;;88.55;37.90;;;;;;;16.29;45.98;96607.78;4915002;29;20526;-85
2022/01/05 07:09:51;;;;;;;63.25;29.60;;;;;;;16.79;44.22;96616.22;4895233;29;20044;-84
2022/01/05 07:12:17;;;;;;;49.53;24.88;;;;;;;17.35;42.86;96610.34;4895645;29;20134;-84
2022/01/05 07:14:43;;;;;;;63.90;34.55;;;;;;;17.73;41.50;96614.47;4906312;29;20050;-84
2022/01/05 07:17:09;;;;;;;80.18;40.10;;;;;;;18.15;40.74;96611.78;4890557;29;20050;-84
2022/01/05 07:19:35;;;;;;;62.38;34.20;;;;;;;18.35;40.12;96626.72;4887230;29;20067;-84
2022/01/05 07:22:00;;;;;;;96.78;50.13;;;;;;;18.57;39.75;96611.75;4918282;29;20043;-83
2022/01/05 07:24:26;;;;;;;80.03;41.42;;;;;;;19.34;38.06;96592.25;4904719;29;20420;-84
2022/01/05 07:26:52;;;;;;;50.90;23.23;;;;;;;20.16;36.98;96594.50;4894340;29;20046;-84
2022/01/05 07:29:19;;;;;;;56.35;31.00;;;;;;;21.03;35.62;96583.25;4900331;29;20046;-85
2022/01/05 07:31:45;;;;;;;62.75;27.63;;;;;;;21.99;34.00;96591.47;4890148;29;20059;-84
2022/01/05 07:34:12;;;;;;;53.03;24.67;;;;;;;22.75;32.78;96579.19;4906169;29;20039;-85
2022/01/05 07:36:39;;;;;;;49.90;19.90;;;;;;;23.38;31.95;96566.53;4916701;29;20036;-84
2022/01/05 07:39:05;;;;;;;50.75;24.83;;;;;;;24.24;30.33;96555.94;4907494;29;20413;-84
2022/01/05 07:41:35;;;;;;;43.10;21.73;;;;;;;24.66;29.91;96584.06;4913263;29;20440;-84
2022/01/05 07:44:01;;;;;;;76.72;45.03;;;;;;;24.77;29.57;96580.72;4904444;29;20043;-85
2022/01/05 07:46:27;;;;;;;61.83;33.28;;;;;;;25.53;28.65;96575.81;4903432;29;20127;-84
2022/01/05 07:48:53;;;;;;;70.68;36.33;;;;;;;25.85;27.99;96577.63;4914183;29;20044;-84
2022/01/05 07:51:18;;;;;;;68.35;40.97;;;;;;;25.39;28.74;96583.13;4890889;29;20044;-82
2022/01/05 07:53:44;;;;;;;83.75;40.83;;;;;;;26.37;28.00;96577.50;4906486;29;20051;-85
2022/01/05 07:56:10;;;;;;;80.85;42.33;;;;;;;26.71;27.22;96580.94;4904656;29;20131;-84
2022/01/05 07:58:45;;;;;;;80.00;43.88;;;;;;;27.40;26.31;96592.75;4918078;29;20416;-84
2022/01/05 08:01:11;;;;;;;79.43;50.22;;;;;;;27.06;26.28;96579.50;4910886;29;20040;-84
2022/01/05 08:03:37;;;;;;;45.25;30.40;;;;;;;26.51;26.21;96577.47;4914515;29;20036;-84
2022/01/05 08:06:04;;;;;;;75.22;40.25;;;;;;;26.25;27.28;96579.25;4909536;29;20028;-84
2022/01/05 08:08:29;;;;;;;90.47;50.95;;;;;;;26.16;27.92;96585.19;4908973;29;20060;-84
2022/01/05 08:10:56;;;;;;;47.40;32.15;;;;;;;26.01;26.84;96562.63;4906941;29;20561;-85
2022/01/05 08:13:24;;;;;;;60.20;37.33;;;;;;;26.38;26.62;96572.88;4890345;29;20031;-84
2022/01/05 08:15:52;;;;;;;125.97;66.68;;;;;;;26.54;27.40;96585.25;4932167;29;20039;-85
2022/01/05 08:18:19;;;;;;;72.18;39.22;;;;;;;26.20;26.54;96587.28;4911273;29;20039;-85
2022/01/05 08:20:45;;;;;;;101.10;40.92;;;;;;;26.65;27.43;96592.78;4908697;29;20039;-85
2022/01/05 08:23:17;;;;;;;66.00;29.60;;;;;;;27.00;26.01;96576.78;4930677;29;20059;-84
2022/01/05 08:25:43;;;;;;;58.63;35.70;;;;;;;25.51;27.83;96570.53;4909643;29;20088;-84
2022/01/05 08:28:11;;;;;;;86.10;41.05;;;;;;;26.47;26.80;96573.47;4906442;29;20485;-85
2022/01/05 08:30:37;;;;;;;44.85;23.55;;;;;;;26.47;25.81;96535.06;4907017;29;20055;-85
2022/01/05 08:33:03;;;;;;;40.70;18.05;;;;;;;27.45;24.61;96570.13;4892872;29;20043;-86
2022/01/05 08:35:29;;;;;;;55.88;27.33;;;;;;;28.01;24.32;96561.75;4884482;29;20036;-85
2022/01/05 08:37:55;;;;;;;97.20;33.97;;;;;;;27.99;25.53;96563.91;4913579;29;20074;-84
2022/01/05 08:40:22;;;;;;;54.55;25.95;;;;;;;28.79;23.91;96560.00;4906739;29;20155;-85
2022/01/05 08:42:49;;;;;;;64.30;30.05;;;;;;;28.62;23.96;96547.06;4912620;29;20070;-85
2022/01/05 08:45:16;;;;;;;41.53;21.50;;;;;;;28.60;23.51;96538.22;4921814;29;20040;-85
2022/01/05 08:47:47;;;;;;;32.20;18.33;;;;;;;29.00;22.31;96545.72;4882923;29;20416;-85
2022/01/05 08:50:13;;;;;;;26.15;15.70;;;;;;;28.80;21.89;96533.28;4916559;29;20047;-85
2022/01/05 08:52:38;;;;;;;29.88;19.50;;;;;;;27.93;22.96;96526.31;4900958;29;20568;-85
2022/01/05 08:55:05;;;;;;;9.15;6.93;;;;;;;27.26;23.04;96547.22;4897786;29;20123;-85
2022/01/05 08:57:30;;;;;;;11.18;5.85;;;;;;;27.11;22.70;96532.13;4898530;29;20047;-85
2022/01/05 08:59:56;;;;;;;8.43;3.90;;;;;;;26.77;22.71;96508.69;4886079;29;20044;-84
2022/01/05 09:02:21;;;;;;;7.72;4.60;;;;;;;27.02;22.90;96523.34;4909651;29;20481;-85
2022/01/05 09:04:51;;;;;;;8.25;4.90;;;;;;;27.16;22.85;96515.84;4909606;29;20131;-85
2022/01/05 09:07:17;;;;;;;22.60;6.28;;;;;;;28.02;22.15;96519.47;4887809;29;20110;-86
2022/01/05 09:09:42;;;;;;;14.73;9.02;;;;;;;28.22;22.04;96516.47;4931215;29;20070;-84
2022/01/05 09:12:09;;;;;;;17.90;6.55;;;;;;;27.83;22.54;96499.38;4893613;29;20062;-84
2022/01/05 09:14:35;;;;;;;9.32;4.85;;;;;;;28.82;21.58;96509.97;4918379;29;20060;-84
2022/01/05 09:17:00;;;;;;;12.07;5.22;;;;;;;28.46;21.47;96501.75;4890015;29;20044;-85
2022/01/05 09:19:28;;;;;;;20.50;5.82;;;;;;;28.32;22.13;96497.53;4904423;29;20051;-85
2022/01/05 09:21:54;;;;;;;8.93;4.20;;;;;;;27.87;21.74;96484.06;4913660;29;20623;-84
2022/01/05 09:24:20;;;;;;;7.72;4.88;;;;;;;28.64;21.64;96481.63;4907004;29;20493;-84
2022/01/05 09:26:45;;;;;;;7.07;3.90;;;;;;;28.95;20.63;96486.88;4915179;29;20054;-84
2022/01/05 09:29:11;;;;;;;7.05;4.82;;;;;;;28.88;20.52;96475.16;4911888;29;20039;-84
2022/01/05 09:31:37;;;;;;;6.93;4.82;;;;;;;28.71;20.61;96469.47;4912988;29;20138;-85
2022/01/05 09:34:03;;;;;;;8.45;4.75;;;;;;;29.12;20.56;96452.09;4904149;29;20492;-85
2022/01/05 09:36:36;;;;;;;7.25;3.80;;;;;;;29.61;19.99;96452.72;4920080;29;20517;-85
2022/01/05 09:41:56;;;;;;;12.65;4.68;;;;;;;29.25;20.32;96451.03;4922905;29;20050;-84
2022/01/05 09:44:30;;;;;;;10.75;5.07;;;;;;;29.79;19.83;96447.03;4905266;29;20039;-84
2022/01/05 09:47:11;;;;;;;14.85;5.25;;;;;;;30.46;19.44;96440.78;4904118;29;20058;-85
2022/01/05 09:49:38;;;;;;;10.00;5.93;;;;;;;30.43;20.20;96429.38;4935736;29;20118;-84
2022/01/05 09:52:06;;;;;;;9.15;5.20;;;;;;;29.47;20.59;96417.13;4919512;29;20091;-84
2022/01/05 09:54:36;;;;;;;9.35;6.00;;;;;;;29.70;20.89;96440.22;4919775;29;20602;-84
2022/01/05 09:57:04;;;;;;;11.55;5.32;;;;;;;29.57;20.96;96422.03;4919653;29;20530;-85
2022/01/05 09:59:33;;;;;;;14.68;5.00;;;;;;;27.64;22.11;96425.38;4919687;29;20043;-85
2022/01/05 10:01:58;;;;;;;12.27;4.43;;;;;;;26.38;23.59;96433.00;4919678;29;20439;-85
2022/01/05 10:04:24;;;;;;;23.20;4.80;;;;;;;27.21;22.97;96411.63;4919431;29;20138;-83
2022/01/05 10:06:50;;;;;;;25.05;10.50;;;;;;;27.77;22.40;96415.06;4903620;29;20071;-85
2022/01/05 10:09:16;;;;;;;5.72;4.15;;;;;;;28.29;21.25;96397.03;4903603;29;20074;-83
2022/01/05 10:11:42;;;;;;;9.25;4.68;;;;;;;29.62;20.37;96415.78;4919580;29;20079;-84
2022/01/05 10:14:11;;;;;;;12.52;7.13;;;;;;;30.60;20.25;96409.03;4919007;29;20541;-84
2022/01/05 10:16:37;;;;;;;7.30;5.20;;;;;;;31.09;19.04;96398.28;4920106;29;20036;-84
2022/01/05 10:19:05;;;;;;;8.68;4.70;;;;;;;30.45;19.38;96411.53;4920018;29;20412;-85
2022/01/05 10:21:36;;;;;;;7.15;5.30;;;;;;;28.59;20.76;96405.25;4919399;29;20061;-85
2022/01/05 10:24:03;;;;;;;7.95;4.30;;;;;;;27.11;22.50;96392.94;4903665;29;20046;-85
2022/01/05 10:26:32;;;;;;;7.50;5.35;;;;;;;26.30;23.42;96412.13;4919718;29;20032;-84
2022/01/05 10:29:04;;;;;;;9.40;5.60;;;;;;;25.92;23.93;96413.19;4919450;29;20043;-84
2022/01/05 10:31:34;;;;;;;;;;;;;;;25.77;24.04;96413.47;4919208;29;20044;-83
2022/01/05 10:34:17;;;;;;;7.28;4.35;;;;;;;25.13;24.43;96402.47;4903026;29;19915;-84
2022/01/05 10:36:47;;;;;;;9.75;4.85;;;;;;;24.74;25.09;96397.84;4903574;29;20504;-84
2022/01/05 10:39:14;;;;;;;6.43;4.32;;;;;;;24.37;25.46;96402.06;4902787;29;20535;-84
2022/01/05 10:41:42;;;;;;;8.50;4.57;;;;;;;25.02;25.14;96401.22;4902676;29;20031;-81
2022/01/05 10:44:16;;;;;;;8.65;4.07;;;;;;;25.13;24.99;96397.00;4918160;29;20047;-83
2022/01/05 10:46:53;;;;;;;7.45;4.32;;;;;;;25.65;23.90;96390.56;4918850;29;20054;-84
2022/01/05 10:49:28;;;;;;;9.32;4.88;;;;;;;26.58;23.96;96383.47;4902873;29;20055;-84
2022/01/05 10:51:55;;;;;;;10.82;7.20;;;;;;;27.50;23.09;96377.97;4935688;29;20126;-84
2022/01/05 10:54:24;;;;;;;8.32;5.65;;;;;;;27.90;22.56;96378.31;4918498;29;20050;-85
2022/01/05 10:56:53;;;;;;;13.25;6.57;;;;;;;27.07;22.86;96361.50;4918779;29;20067;-86
2022/01/05 10:59:36;;;;;;;14.32;8.23;;;;;;;26.56;23.57;96358.16;4902348;29;20044;-85
2022/01/05 11:02:21;;;;;;;8.65;5.72;;;;;;;27.52;22.93;96373.09;4918501;29;20043;-85
2022/01/05 11:04:47;;;;;;;12.75;5.15;;;;;;;27.90;22.42;96364.56;4934752;29;20047;-84
2022/01/05 11:07:19;;;;;;;9.95;5.70;;;;;;;28.75;21.91;96354.22;4918054;29;20040;-84
2022/01/05 11:09:59;;;;;;;6.55;4.93;;;;;;;29.23;20.68;96343.78;4902475;29;20050;-85
2022/01/05 11:12:40;;;;;;;8.18;4.07;;;;;;;29.68;20.25;96351.41;4902396;29;20047;-85
2022/01/05 11:15:23;;;;;;;8.05;4.50;;;;;;;30.23;19.69;96347.03;4902826;29;20075;-84
2022/01/05 11:18:20;;;;;;;11.63;4.75;;;;;;;30.21;19.91;96340.91;4918088;29;20051;-85
2022/01/05 11:20:55;;;;;;;8.30;4.85;;;;;;;30.87;19.67;96325.50;4902254;29;20031;-85
2022/01/05 11:23:23;;;;;;;15.82;6.05;;;;;;;31.26;19.20;96329.16;4902226;29;20075;-85
2022/01/05 11:25:50;;;;;;;33.10;13.80;;;;;;;31.26;19.22;96312.56;4918067;29;20071;-84
2022/01/05 11:28:17;;;;;;;9.65;4.43;;;;;;;32.08;18.19;96321.72;4918117;29;20447;-84
2022/01/05 11:30:45;;;;;;;11.73;5.00;;;;;;;31.91;18.34;96301.53;4901954;29;20060;-83
2022/01/05 11:33:11;;;;;;;6.25;4.70;;;;;;;32.48;18.00;96301.91;4902327;29;20042;-85